sensor_id;sensor_type;location;lat;lon;timestamp;temperature;humidity
36800;DHT22;22752;51.960;5.886;2022-11-10T00:01:58;9.90;99.90
36800;DHT22;22752;51.960;5.886;2022-11-10T00:04:24;9.90;99.90
36800;DHT22;22752;51.960;5.886;2022-11-10T00:06:49;9.90;99.90
36800;DHT22;22752;51.960;5.886;2022-11-10T00:09:15;9.90;99.90
36800;DHT22;22752;51.960;5.886;2022-11-10T00:11:41;9.90;99.90
36800;DHT22;22752;51.960;5.886;2022-11-10T00:14:07;9.90;99.90
36800;DHT22;22752;51.960;5.886;2022-11-10T00:16:52;9.80;99.90
36800;DHT22;22752;51.960;5.886;2022-11-10T00:19:30;9.80;99.90
36800;DHT22;22752;51.960;5.886;2022-11-10T00:21:57;9.80;99.90
36800;DHT22;22752;51.960;5.886;2022-11-10T00:24:23;9.70;99.90
36800;DHT22;22752;51.960;5.886;2022-11-10T00:26:49;9.70;99.90
36800;DHT22;22752;51.960;5.886;2022-11-10T00:29:15;9.80;99.90
36800;DHT22;22752;51.960;5.886;2022-11-10T00:31:40;9.70;99.90
36800;DHT22;22752;51.960;5.886;2022-11-10T00:34:10;9.70;99.90
36800;DHT22;22752;51.960;5.886;2022-11-10T00:36:36;9.70;99.90
36800;DHT22;22752;51.960;5.886;2022-11-10T00:39:02;9.70;99.90
36800;DHT22;22752;51.960;5.886;2022-11-10T00:41:28;9.60;99.90
36800;DHT22;22752;51.960;5.886;2022-11-10T00:43:53;9.60;99.90
36800;DHT22;22752;51.960;5.886;2022-11-10T00:46:19;9.70;99.90
36800;DHT22;22752;51.960;5.886;2022-11-10T00:48:44;9.70;99.90
36800;DHT22;22752;51.960;5.886;2022-11-10T00:51:26;9.70;99.90
36800;DHT22;22752;51.960;5.886;2022-11-10T00:53:53;9.80;99.90
36800;DHT22;22752;51.960;5.886;2022-11-10T00:56:20;9.80;99.90
36800;DHT22;22752;51.960;5.886;2022-11-10T00:58:46;9.80;99.90
36800;DHT22;22752;51.960;5.886;2022-11-10T01:01:12;9.80;99.90
36800;DHT22;22752;51.960;5.886;2022-11-10T01:03:38;9.80;99.90
36800;DHT22;22752;51.960;5.886;2022-11-10T01:06:09;9.80;99.90
36800;DHT22;22752;51.960;5.886;2022-11-10T01:08:36;9.80;99.90
36800;DHT22;22752;51.960;5.886;2022-11-10T01:11:17;9.80;99.90
36800;DHT22;22752;51.960;5.886;2022-11-10T01:13:44;9.80;99.90
36800;DHT22;22752;51.960;5.886;2022-11-10T01:16:17;9.80;99.90
36800;DHT22;22752;51.960;5.886;2022-11-10T01:18:47;9.80;99.90
36800;DHT22;22752;51.960;5.886;2022-11-10T01:21:13;9.80;99.90
36800;DHT22;22752;51.960;5.886;2022-11-10T01:23:39;9.80;99.90
36800;DHT22;22752;51.960;5.886;2022-11-10T01:26:06;9.70;99.90
36800;DHT22;22752;51.960;5.886;2022-11-10T01:28:33;9.80;99.90
36800;DHT22;22752;51.960;5.886;2022-11-10T01:31:00;9.70;99.90
36800;DHT22;22752;51.960;5.886;2022-11-10T01:33:26;9.70;99.90
36800;DHT22;22752;51.960;5.886;2022-11-10T01:35:52;9.60;99.90
36800;DHT22;22752;51.960;5.886;2022-11-10T01:38:18;9.60;99.90
36800;DHT22;22752;51.960;5.886;2022-11-10T01:40:44;9.60;99.90
36800;DHT22;22752;51.960;5.886;2022-11-10T01:43:10;9.60;99.90
36800;DHT22;22752;51.960;5.886;2022-11-10T01:50:55;9.60;99.90
36800;DHT22;22752;51.960;5.886;2022-11-10T01:53:25;9.60;99.90
36800;DHT22;22752;51.960;5.886;2022-11-10T01:55:52;9.60;99.90
36800;DHT22;22752;51.960;5.886;2022-11-10T01:58:23;9.60;99.90
36800;DHT22;22752;51.960;5.886;2022-11-10T02:00:51;9.60;99.90
36800;DHT22;22752;51.960;5.886;2022-11-10T02:03:33;9.60;99.90
36800;DHT22;22752;51.960;5.886;2022-11-10T02:06:01;9.70;99.90
36800;DHT22;22752;51.960;5.886;2022-11-10T02:08:27;9.60;99.90
36800;DHT22;22752;51.960;5.886;2022-11-10T02:10:53;9.60;99.90
36800;DHT22;22752;51.960;5.886;2022-11-10T02:13:19;9.60;99.90
36800;DHT22;22752;51.960;5.886;2022-11-10T02:15:45;9.60;99.90
36800;DHT22;22752;51.960;5.886;2022-11-10T02:18:10;9.60;99.90
36800;DHT22;22752;51.960;5.886;2022-11-10T02:20:36;9.60;99.90
36800;DHT22;22752;51.960;5.886;2022-11-10T02:25:59;9.70;99.90
36800;DHT22;22752;51.960;5.886;2022-11-10T02:28:25;9.60;99.90
36800;DHT22;22752;51.960;5.886;2022-11-10T02:30:52;9.60;99.90
36800;DHT22;22752;51.960;5.886;2022-11-10T02:33:18;9.70;99.90
36800;DHT22;22752;51.960;5.886;2022-11-10T02:35:45;9.70;99.90
36800;DHT22;22752;51.960;5.886;2022-11-10T02:38:11;9.80;99.90
36800;DHT22;22752;51.960;5.886;2022-11-10T02:40:36;9.80;99.90
36800;DHT22;22752;51.960;5.886;2022-11-10T02:43:04;9.80;99.90
36800;DHT22;22752;51.960;5.886;2022-11-10T02:45:30;9.80;99.90
36800;DHT22;22752;51.960;5.886;2022-11-10T02:47:56;9.80;99.90
36800;DHT22;22752;51.960;5.886;2022-11-10T02:50:22;9.80;99.90
36800;DHT22;22752;51.960;5.886;2022-11-10T02:52:47;9.90;99.90
36800;DHT22;22752;51.960;5.886;2022-11-10T02:55:13;9.90;99.90
36800;DHT22;22752;51.960;5.886;2022-11-10T02:57:39;9.90;99.90
36800;DHT22;22752;51.960;5.886;2022-11-10T03:00:05;9.90;99.90
36800;DHT22;22752;51.960;5.886;2022-11-10T03:02:31;9.90;99.90
36800;DHT22;22752;51.960;5.886;2022-11-10T03:04:57;9.90;99.90
36800;DHT22;22752;51.960;5.886;2022-11-10T03:07:23;9.80;99.90
36800;DHT22;22752;51.960;5.886;2022-11-10T03:09:48;9.80;99.90
36800;DHT22;22752;51.960;5.886;2022-11-10T03:12:15;9.80;99.90
36800;DHT22;22752;51.960;5.886;2022-11-10T03:14:40;9.80;99.90
36800;DHT22;22752;51.960;5.886;2022-11-10T03:17:06;9.70;99.90
36800;DHT22;22752;51.960;5.886;2022-11-10T03:19:32;9.70;99.90
36800;DHT22;22752;51.960;5.886;2022-11-10T03:21:57;9.70;99.90
36800;DHT22;22752;51.960;5.886;2022-11-10T03:24:23;9.60;99.90
36800;DHT22;22752;51.960;5.886;2022-11-10T03:26:48;9.60;99.90
36800;DHT22;22752;51.960;5.886;2022-11-10T03:29:14;9.50;99.90
36800;DHT22;22752;51.960;5.886;2022-11-10T03:31:40;9.50;99.90
36800;DHT22;22752;51.960;5.886;2022-11-10T03:34:05;9.50;99.90
36800;DHT22;22752;51.960;5.886;2022-11-10T03:36:31;9.40;99.90
36800;DHT22;22752;51.960;5.886;2022-11-10T03:38:56;9.40;99.90
36800;DHT22;22752;51.960;5.886;2022-11-10T03:41:22;9.40;99.90
36800;DHT22;22752;51.960;5.886;2022-11-10T03:43:48;9.40;99.90
36800;DHT22;22752;51.960;5.886;2022-11-10T03:46:14;9.40;99.90
36800;DHT22;22752;51.960;5.886;2022-11-10T03:48:40;9.40;99.90
36800;DHT22;22752;51.960;5.886;2022-11-10T03:51:06;9.40;99.90
36800;DHT22;22752;51.960;5.886;2022-11-10T03:53:31;9.40;99.90
36800;DHT22;22752;51.960;5.886;2022-11-10T03:56:01;9.40;99.90
36800;DHT22;22752;51.960;5.886;2022-11-10T03:58:27;9.40;99.90
36800;DHT22;22752;51.960;5.886;2022-11-10T04:00:53;9.40;99.90
36800;DHT22;22752;51.960;5.886;2022-11-10T04:03:19;9.40;99.90
36800;DHT22;22752;51.960;5.886;2022-11-10T04:05:45;9.40;99.90
36800;DHT22;22752;51.960;5.886;2022-11-10T04:08:29;9.40;99.90
36800;DHT22;22752;51.960;5.886;2022-11-10T04:11:13;9.40;99.90
36800;DHT22;22752;51.960;5.886;2022-11-10T04:13:59;9.40;99.90
36800;DHT22;22752;51.960;5.886;2022-11-10T04:16:43;9.30;99.90
36800;DHT22;22752;51.960;5.886;2022-11-10T04:19:08;9.40;99.90
36800;DHT22;22752;51.960;5.886;2022-11-10T04:21:34;9.30;99.90
36800;DHT22;22752;51.960;5.886;2022-11-10T04:24:00;9.30;99.90
36800;DHT22;22752;51.960;5.886;2022-11-10T04:26:25;9.30;99.90
36800;DHT22;22752;51.960;5.886;2022-11-10T04:29:01;9.30;99.90
36800;DHT22;22752;51.960;5.886;2022-11-10T04:31:28;9.30;99.90
36800;DHT22;22752;51.960;5.886;2022-11-10T04:33:55;9.30;99.90
36800;DHT22;22752;51.960;5.886;2022-11-10T04:36:24;9.30;99.90
36800;DHT22;22752;51.960;5.886;2022-11-10T04:38:50;9.20;99.90
36800;DHT22;22752;51.960;5.886;2022-11-10T04:41:16;9.20;99.90
36800;DHT22;22752;51.960;5.886;2022-11-10T04:43:42;9.20;99.90
36800;DHT22;22752;51.960;5.886;2022-11-10T04:46:35;9.20;99.90
36800;DHT22;22752;51.960;5.886;2022-11-10T04:49:02;9.30;99.90
36800;DHT22;22752;51.960;5.886;2022-11-10T04:51:30;9.30;99.90
36800;DHT22;22752;51.960;5.886;2022-11-10T04:53:56;9.30;99.90
36800;DHT22;22752;51.960;5.886;2022-11-10T04:56:23;9.40;99.90
36800;DHT22;22752;51.960;5.886;2022-11-10T04:58:49;9.50;99.90
36800;DHT22;22752;51.960;5.886;2022-11-10T05:01:19;9.50;99.90
36800;DHT22;22752;51.960;5.886;2022-11-10T05:03:45;9.50;99.90
36800;DHT22;22752;51.960;5.886;2022-11-10T05:06:11;9.60;99.90
36800;DHT22;22752;51.960;5.886;2022-11-10T05:08:38;9.60;99.90
36800;DHT22;22752;51.960;5.886;2022-11-10T05:11:04;9.60;99.90
36800;DHT22;22752;51.960;5.886;2022-11-10T05:13:30;9.50;99.90
36800;DHT22;22752;51.960;5.886;2022-11-10T05:15:56;9.60;99.90
36800;DHT22;22752;51.960;5.886;2022-11-10T05:18:22;9.50;99.90
36800;DHT22;22752;51.960;5.886;2022-11-10T05:20:48;9.50;99.90
36800;DHT22;22752;51.960;5.886;2022-11-10T05:23:13;9.50;99.90
36800;DHT22;22752;51.960;5.886;2022-11-10T05:25:57;9.50;99.90
36800;DHT22;22752;51.960;5.886;2022-11-10T05:28:23;9.50;99.90
36800;DHT22;22752;51.960;5.886;2022-11-10T05:30:49;9.50;99.90
36800;DHT22;22752;51.960;5.886;2022-11-10T05:33:14;9.50;99.90
36800;DHT22;22752;51.960;5.886;2022-11-10T05:35:40;9.50;99.90
36800;DHT22;22752;51.960;5.886;2022-11-10T05:38:06;9.50;99.90
36800;DHT22;22752;51.960;5.886;2022-11-10T05:40:32;9.50;99.90
36800;DHT22;22752;51.960;5.886;2022-11-10T05:42:58;9.50;99.90
36800;DHT22;22752;51.960;5.886;2022-11-10T05:45:26;9.40;99.90
36800;DHT22;22752;51.960;5.886;2022-11-10T05:47:52;9.40;99.90
36800;DHT22;22752;51.960;5.886;2022-11-10T05:50:19;9.40;99.90
36800;DHT22;22752;51.960;5.886;2022-11-10T05:52:47;9.30;99.90
36800;DHT22;22752;51.960;5.886;2022-11-10T05:55:14;9.30;99.90
36800;DHT22;22752;51.960;5.886;2022-11-10T05:57:44;9.30;99.90
36800;DHT22;22752;51.960;5.886;2022-11-10T06:00:11;9.30;99.90
36800;DHT22;22752;51.960;5.886;2022-11-10T06:02:37;9.20;99.90
36800;DHT22;22752;51.960;5.886;2022-11-10T06:05:03;9.20;99.90
36800;DHT22;22752;51.960;5.886;2022-11-10T06:07:29;9.20;99.90
36800;DHT22;22752;51.960;5.886;2022-11-10T06:09:55;9.10;99.90
36800;DHT22;22752;51.960;5.886;2022-11-10T06:12:21;9.10;99.90
36800;DHT22;22752;51.960;5.886;2022-11-10T06:14:49;9.00;99.90
36800;DHT22;22752;51.960;5.886;2022-11-10T06:17:15;9.00;99.90
36800;DHT22;22752;51.960;5.886;2022-11-10T06:19:41;9.00;99.90
36800;DHT22;22752;51.960;5.886;2022-11-10T06:22:07;9.10;99.90
36800;DHT22;22752;51.960;5.886;2022-11-10T06:24:32;9.00;99.90
36800;DHT22;22752;51.960;5.886;2022-11-10T06:26:58;9.00;99.90
36800;DHT22;22752;51.960;5.886;2022-11-10T06:29:23;9.10;99.90
36800;DHT22;22752;51.960;5.886;2022-11-10T06:31:49;9.10;99.90
36800;DHT22;22752;51.960;5.886;2022-11-10T06:34:15;9.00;99.90
36800;DHT22;22752;51.960;5.886;2022-11-10T06:36:40;9.00;99.90
36800;DHT22;22752;51.960;5.886;2022-11-10T06:39:06;9.10;99.90
36800;DHT22;22752;51.960;5.886;2022-11-10T06:41:31;9.10;99.90
36800;DHT22;22752;51.960;5.886;2022-11-10T06:43:58;9.00;99.90
36800;DHT22;22752;51.960;5.886;2022-11-10T06:46:25;9.10;99.90
36800;DHT22;22752;51.960;5.886;2022-11-10T06:48:50;9.10;99.90
36800;DHT22;22752;51.960;5.886;2022-11-10T06:51:16;9.10;99.90
36800;DHT22;22752;51.960;5.886;2022-11-10T06:53:42;9.10;99.90
36800;DHT22;22752;51.960;5.886;2022-11-10T06:56:08;9.10;99.90
36800;DHT22;22752;51.960;5.886;2022-11-10T06:58:34;9.10;99.90
36800;DHT22;22752;51.960;5.886;2022-11-10T07:01:00;9.10;99.90
36800;DHT22;22752;51.960;5.886;2022-11-10T07:03:26;9.10;99.90
36800;DHT22;22752;51.960;5.886;2022-11-10T07:05:52;9.10;99.90
36800;DHT22;22752;51.960;5.886;2022-11-10T07:08:17;9.10;99.90
36800;DHT22;22752;51.960;5.886;2022-11-10T07:10:54;9.20;99.90
36800;DHT22;22752;51.960;5.886;2022-11-10T07:13:20;9.30;99.90
36800;DHT22;22752;51.960;5.886;2022-11-10T07:15:46;9.30;99.90
36800;DHT22;22752;51.960;5.886;2022-11-10T07:18:11;9.30;99.90
36800;DHT22;22752;51.960;5.886;2022-11-10T07:20:37;9.30;99.90
36800;DHT22;22752;51.960;5.886;2022-11-10T07:23:05;9.30;99.90
36800;DHT22;22752;51.960;5.886;2022-11-10T07:25:33;9.30;99.90
36800;DHT22;22752;51.960;5.886;2022-11-10T07:28:01;9.40;99.90
36800;DHT22;22752;51.960;5.886;2022-11-10T07:30:28;9.40;99.90
36800;DHT22;22752;51.960;5.886;2022-11-10T07:33:03;9.50;99.90
36800;DHT22;22752;51.960;5.886;2022-11-10T07:35:29;9.50;99.90
36800;DHT22;22752;51.960;5.886;2022-11-10T07:37:56;9.50;99.90
36800;DHT22;22752;51.960;5.886;2022-11-10T07:40:22;9.60;99.90
36800;DHT22;22752;51.960;5.886;2022-11-10T07:42:48;9.60;99.90
36800;DHT22;22752;51.960;5.886;2022-11-10T07:45:14;9.70;99.90
36800;DHT22;22752;51.960;5.886;2022-11-10T07:47:39;9.70;99.90
36800;DHT22;22752;51.960;5.886;2022-11-10T07:50:06;9.80;99.90
36800;DHT22;22752;51.960;5.886;2022-11-10T07:52:31;9.80;99.90
36800;DHT22;22752;51.960;5.886;2022-11-10T07:54:57;9.90;99.90
36800;DHT22;22752;51.960;5.886;2022-11-10T07:57:23;9.90;99.90
36800;DHT22;22752;51.960;5.886;2022-11-10T07:59:48;10.00;99.90
36800;DHT22;22752;51.960;5.886;2022-11-10T08:02:14;10.00;99.90
36800;DHT22;22752;51.960;5.886;2022-11-10T08:04:40;10.10;99.90
36800;DHT22;22752;51.960;5.886;2022-11-10T08:07:05;10.20;99.90
36800;DHT22;22752;51.960;5.886;2022-11-10T08:09:31;10.20;99.90
36800;DHT22;22752;51.960;5.886;2022-11-10T08:11:57;10.30;99.90
36800;DHT22;22752;51.960;5.886;2022-11-10T08:14:23;10.30;99.90
36800;DHT22;22752;51.960;5.886;2022-11-10T08:16:50;10.40;99.90
36800;DHT22;22752;51.960;5.886;2022-11-10T08:19:16;10.40;99.90
36800;DHT22;22752;51.960;5.886;2022-11-10T08:21:41;10.40;99.90
36800;DHT22;22752;51.960;5.886;2022-11-10T08:24:07;10.50;99.90
36800;DHT22;22752;51.960;5.886;2022-11-10T08:26:33;10.60;99.90
36800;DHT22;22752;51.960;5.886;2022-11-10T08:28:58;10.60;99.90
36800;DHT22;22752;51.960;5.886;2022-11-10T08:31:24;10.70;99.90
36800;DHT22;22752;51.960;5.886;2022-11-10T08:33:50;10.80;99.90
36800;DHT22;22752;51.960;5.886;2022-11-10T08:36:15;10.80;99.90
36800;DHT22;22752;51.960;5.886;2022-11-10T08:38:41;10.90;99.90
36800;DHT22;22752;51.960;5.886;2022-11-10T08:41:07;10.90;99.90
36800;DHT22;22752;51.960;5.886;2022-11-10T08:43:33;11.00;99.90
36800;DHT22;22752;51.960;5.886;2022-11-10T08:45:58;11.00;99.90
36800;DHT22;22752;51.960;5.886;2022-11-10T08:48:26;11.10;99.90
36800;DHT22;22752;51.960;5.886;2022-11-10T08:50:52;11.20;99.90
36800;DHT22;22752;51.960;5.886;2022-11-10T08:53:22;11.30;99.90
36800;DHT22;22752;51.960;5.886;2022-11-10T08:55:49;11.40;99.90
36800;DHT22;22752;51.960;5.886;2022-11-10T08:58:20;11.50;99.90
36800;DHT22;22752;51.960;5.886;2022-11-10T09:00:46;11.60;99.90
36800;DHT22;22752;51.960;5.886;2022-11-10T09:03:14;11.70;99.90
36800;DHT22;22752;51.960;5.886;2022-11-10T09:05:40;11.70;99.90
36800;DHT22;22752;51.960;5.886;2022-11-10T09:08:07;11.80;99.90
36800;DHT22;22752;51.960;5.886;2022-11-10T09:10:35;11.80;99.90
36800;DHT22;22752;51.960;5.886;2022-11-10T09:13:02;11.80;99.90
36800;DHT22;22752;51.960;5.886;2022-11-10T09:15:29;11.80;99.90
36800;DHT22;22752;51.960;5.886;2022-11-10T09:17:59;11.80;99.90
36800;DHT22;22752;51.960;5.886;2022-11-10T09:20:26;11.90;99.90
36800;DHT22;22752;51.960;5.886;2022-11-10T09:22:52;11.90;99.90
36800;DHT22;22752;51.960;5.886;2022-11-10T09:25:18;11.90;99.90
36800;DHT22;22752;51.960;5.886;2022-11-10T09:27:44;11.90;99.90
36800;DHT22;22752;51.960;5.886;2022-11-10T09:30:10;11.90;99.90
36800;DHT22;22752;51.960;5.886;2022-11-10T09:32:36;12.00;99.90
36800;DHT22;22752;51.960;5.886;2022-11-10T09:35:02;12.00;99.90
36800;DHT22;22752;51.960;5.886;2022-11-10T09:37:27;12.00;99.90
36800;DHT22;22752;51.960;5.886;2022-11-10T09:39:53;12.10;99.90
36800;DHT22;22752;51.960;5.886;2022-11-10T09:42:39;12.20;99.90
36800;DHT22;22752;51.960;5.886;2022-11-10T09:50:51;12.30;99.90
36800;DHT22;22752;51.960;5.886;2022-11-10T09:53:31;12.40;99.90
36800;DHT22;22752;51.960;5.886;2022-11-10T09:56:02;12.40;99.90
36800;DHT22;22752;51.960;5.886;2022-11-10T09:58:34;12.50;99.90
36800;DHT22;22752;51.960;5.886;2022-11-10T10:03:59;12.60;99.90
36800;DHT22;22752;51.960;5.886;2022-11-10T10:06:28;12.60;99.90
36800;DHT22;22752;51.960;5.886;2022-11-10T10:09:26;12.60;99.90
36800;DHT22;22752;51.960;5.886;2022-11-10T10:17:27;12.80;99.90
36800;DHT22;22752;51.960;5.886;2022-11-10T10:22:40;12.90;99.90
36800;DHT22;22752;51.960;5.886;2022-11-10T10:25:22;12.90;99.90
36800;DHT22;22752;51.960;5.886;2022-11-10T10:27:55;13.00;99.90
36800;DHT22;22752;51.960;5.886;2022-11-10T10:30:23;13.00;99.90
36800;DHT22;22752;51.960;5.886;2022-11-10T10:32:56;13.10;99.90
36800;DHT22;22752;51.960;5.886;2022-11-10T10:35:24;13.20;99.90
36800;DHT22;22752;51.960;5.886;2022-11-10T10:37:55;13.30;99.90
36800;DHT22;22752;51.960;5.886;2022-11-10T10:40:23;13.30;99.90
36800;DHT22;22752;51.960;5.886;2022-11-10T10:42:49;13.30;99.90
36800;DHT22;22752;51.960;5.886;2022-11-10T10:47:48;13.40;99.90
36800;DHT22;22752;51.960;5.886;2022-11-10T10:55:47;13.50;99.90
36800;DHT22;22752;51.960;5.886;2022-11-10T10:58:23;13.60;99.90
36800;DHT22;22752;51.960;5.886;2022-11-10T11:00:55;13.60;99.90
36800;DHT22;22752;51.960;5.886;2022-11-10T11:03:41;13.60;99.90
36800;DHT22;22752;51.960;5.886;2022-11-10T11:11:25;13.80;99.90
36800;DHT22;22752;51.960;5.886;2022-11-10T11:13:51;13.80;99.90
36800;DHT22;22752;51.960;5.886;2022-11-10T11:16:17;13.90;99.90
36800;DHT22;22752;51.960;5.886;2022-11-10T11:18:43;14.00;99.90
36800;DHT22;22752;51.960;5.886;2022-11-10T11:21:22;14.10;99.90
36800;DHT22;22752;51.960;5.886;2022-11-10T11:26:36;14.10;99.90
36800;DHT22;22752;51.960;5.886;2022-11-10T11:29:17;14.20;99.90
36800;DHT22;22752;51.960;5.886;2022-11-10T11:32:02;14.20;99.90
36800;DHT22;22752;51.960;5.886;2022-11-10T11:34:59;14.20;99.90
36800;DHT22;22752;51.960;5.886;2022-11-10T11:37:49;14.20;99.90
36800;DHT22;22752;51.960;5.886;2022-11-10T11:40:52;14.20;99.90
36800;DHT22;22752;51.960;5.886;2022-11-10T11:46:48;14.30;99.90
36800;DHT22;22752;51.960;5.886;2022-11-10T11:52:37;14.30;99.90
36800;DHT22;22752;51.960;5.886;2022-11-10T11:55:30;14.30;99.90
36800;DHT22;22752;51.960;5.886;2022-11-10T12:03:19;14.60;99.90
36800;DHT22;22752;51.960;5.886;2022-11-10T12:08:59;14.80;99.90
36800;DHT22;22752;51.960;5.886;2022-11-10T12:16:49;15.10;99.90
36800;DHT22;22752;51.960;5.886;2022-11-10T12:22:12;15.00;99.90
36800;DHT22;22752;51.960;5.886;2022-11-10T12:24:46;15.00;99.90
36800;DHT22;22752;51.960;5.886;2022-11-10T12:27:34;15.00;99.90
36800;DHT22;22752;51.960;5.886;2022-11-10T12:30:07;15.10;99.90
36800;DHT22;22752;51.960;5.886;2022-11-10T12:32:45;15.10;99.90
36800;DHT22;22752;51.960;5.886;2022-11-10T12:35:25;15.20;99.90
36800;DHT22;22752;51.960;5.886;2022-11-10T12:40:34;15.30;99.90
36800;DHT22;22752;51.960;5.886;2022-11-10T12:43:28;15.50;99.90
36800;DHT22;22752;51.960;5.886;2022-11-10T12:45:53;15.50;99.90
36800;DHT22;22752;51.960;5.886;2022-11-10T12:48:21;15.60;99.90
36800;DHT22;22752;51.960;5.886;2022-11-10T12:53:40;15.60;99.90
36800;DHT22;22752;51.960;5.886;2022-11-10T12:56:15;15.60;99.90
36800;DHT22;22752;51.960;5.886;2022-11-10T12:58:41;15.60;99.90
36800;DHT22;22752;51.960;5.886;2022-11-10T13:01:13;15.50;99.90
36800;DHT22;22752;51.960;5.886;2022-11-10T13:03:56;15.60;99.90
36800;DHT22;22752;51.960;5.886;2022-11-10T13:08:50;15.50;99.90
36800;DHT22;22752;51.960;5.886;2022-11-10T13:13:52;15.50;99.90
36800;DHT22;22752;51.960;5.886;2022-11-10T13:19:04;15.70;99.90
36800;DHT22;22752;51.960;5.886;2022-11-10T13:27:01;15.90;99.90
36800;DHT22;22752;51.960;5.886;2022-11-10T13:34:43;15.70;99.90
36800;DHT22;22752;51.960;5.886;2022-11-10T13:48:02;15.40;99.90
36800;DHT22;22752;51.960;5.886;2022-11-10T13:59:00;15.20;99.90
36800;DHT22;22752;51.960;5.886;2022-11-10T14:01:27;15.10;99.90
36800;DHT22;22752;51.960;5.886;2022-11-10T14:03:57;15.10;99.90
36800;DHT22;22752;51.960;5.886;2022-11-10T14:06:29;15.10;99.90
36800;DHT22;22752;51.960;5.886;2022-11-10T14:11:47;15.10;99.90
36800;DHT22;22752;51.960;5.886;2022-11-10T14:14:28;15.10;99.90
36800;DHT22;22752;51.960;5.886;2022-11-10T14:16:57;15.00;99.90
36800;DHT22;22752;51.960;5.886;2022-11-10T14:21:58;15.00;99.90
36800;DHT22;22752;51.960;5.886;2022-11-10T14:24:29;15.00;99.90
36800;DHT22;22752;51.960;5.886;2022-11-10T14:26:57;14.90;99.90
36800;DHT22;22752;51.960;5.886;2022-11-10T14:29:33;14.90;99.90
36800;DHT22;22752;51.960;5.886;2022-11-10T14:32:02;14.90;99.90
36800;DHT22;22752;51.960;5.886;2022-11-10T14:34:29;14.90;99.90
36800;DHT22;22752;51.960;5.886;2022-11-10T14:36:58;14.90;99.90
36800;DHT22;22752;51.960;5.886;2022-11-10T14:39:33;14.80;99.90
36800;DHT22;22752;51.960;5.886;2022-11-10T14:42:03;14.80;99.90
36800;DHT22;22752;51.960;5.886;2022-11-10T14:44:31;14.80;99.90
36800;DHT22;22752;51.960;5.886;2022-11-10T14:47:30;14.80;99.90
36800;DHT22;22752;51.960;5.886;2022-11-10T14:50:29;14.80;99.90
36800;DHT22;22752;51.960;5.886;2022-11-10T14:55:43;14.70;99.90
36800;DHT22;22752;51.960;5.886;2022-11-10T14:58:21;14.60;99.90
36800;DHT22;22752;51.960;5.886;2022-11-10T15:00:48;14.70;99.90
36800;DHT22;22752;51.960;5.886;2022-11-10T15:03:21;14.60;99.90
36800;DHT22;22752;51.960;5.886;2022-11-10T15:05:49;14.60;99.90
36800;DHT22;22752;51.960;5.886;2022-11-10T15:08:15;14.60;99.90
36800;DHT22;22752;51.960;5.886;2022-11-10T15:10:49;14.50;99.90
36800;DHT22;22752;51.960;5.886;2022-11-10T15:13:31;14.50;99.90
36800;DHT22;22752;51.960;5.886;2022-11-10T15:16:20;14.50;99.90
36800;DHT22;22752;51.960;5.886;2022-11-10T15:18:46;14.40;99.90
36800;DHT22;22752;51.960;5.886;2022-11-10T15:21:15;14.20;99.90
36800;DHT22;22752;51.960;5.886;2022-11-10T15:23:44;14.20;99.90
36800;DHT22;22752;51.960;5.886;2022-11-10T15:28:47;14.00;99.90
36800;DHT22;22752;51.960;5.886;2022-11-10T15:31:33;13.90;99.90
36800;DHT22;22752;51.960;5.886;2022-11-10T15:34:03;13.90;99.90
36800;DHT22;22752;51.960;5.886;2022-11-10T15:36:37;13.80;99.90
36800;DHT22;22752;51.960;5.886;2022-11-10T15:39:16;13.70;99.90
36800;DHT22;22752;51.960;5.886;2022-11-10T15:41:49;13.70;99.90
36800;DHT22;22752;51.960;5.886;2022-11-10T15:44:24;13.70;99.90
36800;DHT22;22752;51.960;5.886;2022-11-10T15:46:55;13.70;99.90
36800;DHT22;22752;51.960;5.886;2022-11-10T15:49:38;13.60;99.90
36800;DHT22;22752;51.960;5.886;2022-11-10T15:52:21;13.50;99.90
36800;DHT22;22752;51.960;5.886;2022-11-10T15:54:49;13.30;99.90
36800;DHT22;22752;51.960;5.886;2022-11-10T15:57:17;13.30;99.90
36800;DHT22;22752;51.960;5.886;2022-11-10T15:59:43;13.20;99.90
36800;DHT22;22752;51.960;5.886;2022-11-10T16:02:21;13.10;99.90
36800;DHT22;22752;51.960;5.886;2022-11-10T16:04:49;13.10;99.90
36800;DHT22;22752;51.960;5.886;2022-11-10T16:07:15;13.10;99.90
36800;DHT22;22752;51.960;5.886;2022-11-10T16:09:41;13.10;99.90
36800;DHT22;22752;51.960;5.886;2022-11-10T16:12:18;12.90;99.90
36800;DHT22;22752;51.960;5.886;2022-11-10T16:14:47;12.90;99.90
36800;DHT22;22752;51.960;5.886;2022-11-10T16:17:14;12.80;99.90
36800;DHT22;22752;51.960;5.886;2022-11-10T16:19:41;12.80;99.90
36800;DHT22;22752;51.960;5.886;2022-11-10T16:22:09;12.80;99.90
36800;DHT22;22752;51.960;5.886;2022-11-10T16:24:35;12.80;99.90
36800;DHT22;22752;51.960;5.886;2022-11-10T16:27:03;12.80;99.90
36800;DHT22;22752;51.960;5.886;2022-11-10T16:29:31;12.80;99.90
36800;DHT22;22752;51.960;5.886;2022-11-10T16:31:57;12.80;99.90
36800;DHT22;22752;51.960;5.886;2022-11-10T16:34:22;12.80;99.90
36800;DHT22;22752;51.960;5.886;2022-11-10T16:36:48;12.80;99.90
36800;DHT22;22752;51.960;5.886;2022-11-10T16:39:15;12.90;99.90
36800;DHT22;22752;51.960;5.886;2022-11-10T16:41:41;12.90;99.90
36800;DHT22;22752;51.960;5.886;2022-11-10T16:44:10;12.90;99.90
36800;DHT22;22752;51.960;5.886;2022-11-10T16:46:36;13.00;99.90
36800;DHT22;22752;51.960;5.886;2022-11-10T16:49:04;13.00;99.90
36800;DHT22;22752;51.960;5.886;2022-11-10T16:51:38;13.00;99.90
36800;DHT22;22752;51.960;5.886;2022-11-10T16:54:04;12.90;99.90
36800;DHT22;22752;51.960;5.886;2022-11-10T16:56:30;12.90;99.90
36800;DHT22;22752;51.960;5.886;2022-11-10T16:58:55;12.80;99.90
36800;DHT22;22752;51.960;5.886;2022-11-10T17:01:24;12.80;99.90
36800;DHT22;22752;51.960;5.886;2022-11-10T17:03:53;12.70;99.90
36800;DHT22;22752;51.960;5.886;2022-11-10T17:06:20;12.70;99.90
36800;DHT22;22752;51.960;5.886;2022-11-10T17:08:49;12.70;99.90
36800;DHT22;22752;51.960;5.886;2022-11-10T17:11:16;12.60;99.90
36800;DHT22;22752;51.960;5.886;2022-11-10T17:13:42;12.50;99.90
36800;DHT22;22752;51.960;5.886;2022-11-10T17:16:27;12.40;99.90
36800;DHT22;22752;51.960;5.886;2022-11-10T17:18:54;12.40;99.90
36800;DHT22;22752;51.960;5.886;2022-11-10T17:21:21;12.40;99.90
36800;DHT22;22752;51.960;5.886;2022-11-10T17:23:47;12.30;99.90
36800;DHT22;22752;51.960;5.886;2022-11-10T17:26:15;12.20;99.90
36800;DHT22;22752;51.960;5.886;2022-11-10T17:28:41;12.20;99.90
36800;DHT22;22752;51.960;5.886;2022-11-10T17:31:07;12.10;99.90
36800;DHT22;22752;51.960;5.886;2022-11-10T17:33:32;12.10;99.90
36800;DHT22;22752;51.960;5.886;2022-11-10T17:36:00;12.00;99.90
36800;DHT22;22752;51.960;5.886;2022-11-10T17:38:27;11.90;99.90
36800;DHT22;22752;51.960;5.886;2022-11-10T17:40:54;11.80;99.90
36800;DHT22;22752;51.960;5.886;2022-11-10T17:43:20;11.70;99.90
36800;DHT22;22752;51.960;5.886;2022-11-10T17:45:46;11.60;99.90
36800;DHT22;22752;51.960;5.886;2022-11-10T17:48:11;11.60;99.90